createdAt,value
2022-10-06T00:00:12.522Z,13.20
2022-10-06T00:02:39.437Z,13.10
2022-10-06T00:05:06.384Z,13.10
2022-10-06T00:07:34.292Z,13.20
2022-10-06T00:10:01.157Z,13.20
2022-10-06T00:12:28.385Z,13.20
2022-10-06T00:14:55.346Z,13.20
2022-10-06T00:17:22.298Z,13.10
2022-10-06T00:19:49.152Z,13.10
2022-10-06T00:22:16.019Z,13.10
2022-10-06T00:24:42.913Z,13.10
2022-10-06T00:27:10.844Z,13.10
2022-10-06T00:29:37.699Z,13.10
2022-10-06T00:32:04.525Z,13.10
2022-10-06T00:34:31.303Z,13.10
2022-10-06T00:36:58.327Z,13.10
2022-10-06T00:39:25.139Z,13.00
2022-10-06T00:41:51.934Z,13.00
2022-10-06T00:44:18.836Z,13.00
2022-10-06T00:46:50.172Z,12.90
2022-10-06T00:49:31.684Z,12.90
2022-10-06T00:52:11.944Z,12.80
2022-10-06T00:54:38.934Z,12.90
2022-10-06T00:57:06.629Z,12.80
2022-10-06T00:59:36.147Z,12.80
2022-10-06T01:02:18.234Z,12.80
2022-10-06T01:04:58.107Z,12.80
2022-10-06T01:07:28.473Z,12.70
2022-10-06T01:09:59.247Z,12.70
2022-10-06T01:12:28.919Z,12.70
2022-10-06T01:14:56.804Z,12.70
2022-10-06T01:17:31.130Z,12.70
2022-10-06T01:20:02.548Z,12.70
2022-10-06T01:22:35.501Z,12.60
2022-10-06T01:25:04.420Z,12.60
2022-10-06T01:27:32.711Z,12.60
2022-10-06T01:30:00.584Z,12.50
2022-10-06T01:32:33.035Z,12.50
2022-10-06T01:34:59.960Z,12.50
2022-10-06T01:37:26.726Z,12.50
2022-10-06T01:39:53.859Z,12.50
2022-10-06T01:42:20.680Z,12.50
2022-10-06T01:44:47.548Z,12.40
2022-10-06T01:47:14.393Z,12.40
2022-10-06T01:49:41.391Z,12.40
2022-10-06T01:52:08.220Z,12.30
2022-10-06T01:54:35.110Z,12.20
2022-10-06T01:57:02.115Z,12.20
2022-10-06T01:59:29.175Z,12.10
2022-10-06T02:01:56.061Z,12.10
2022-10-06T02:04:22.948Z,12.00
2022-10-06T02:06:51.444Z,12.00
2022-10-06T02:09:18.421Z,12.00
2022-10-06T02:11:45.267Z,12.00
2022-10-06T02:14:13.113Z,12.00
2022-10-06T02:16:40.352Z,12.00
2022-10-06T02:19:07.159Z,11.90
2022-10-06T02:21:34.022Z,12.00
2022-10-06T02:24:00.967Z,12.00
2022-10-06T02:26:28.446Z,12.00
2022-10-06T02:28:55.383Z,12.00
2022-10-06T02:31:22.376Z,12.00
2022-10-06T02:33:49.257Z,12.00
2022-10-06T02:36:19.321Z,12.00
2022-10-06T02:38:46.188Z,12.00
2022-10-06T02:41:13.003Z,11.90
2022-10-06T02:43:39.872Z,11.90
2022-10-06T02:46:12.057Z,11.90
2022-10-06T02:48:40.794Z,11.90
2022-10-06T02:51:15.635Z,12.00
2022-10-06T02:53:43.603Z,11.90
2022-10-06T02:56:22.229Z,11.90
2022-10-06T02:58:50.876Z,11.90
2022-10-06T03:01:26.692Z,11.80
2022-10-06T03:03:54.310Z,11.80
2022-10-06T03:06:24.061Z,11.90
2022-10-06T03:08:56.475Z,11.90
2022-10-06T03:11:25.861Z,11.90
2022-10-06T03:13:53.090Z,11.90
2022-10-06T03:16:23.021Z,11.90
2022-10-06T03:18:51.483Z,11.80
2022-10-06T03:21:47.570Z,11.70
2022-10-06T03:24:21.258Z,11.70
2022-10-06T03:26:48.257Z,11.70
2022-10-06T03:29:16.326Z,11.60
2022-10-06T03:31:43.561Z,11.60
2022-10-06T03:34:10.759Z,11.60
2022-10-06T03:36:38.004Z,11.60
2022-10-06T03:39:06.403Z,11.50
2022-10-06T03:41:36.197Z,11.60
2022-10-06T03:44:03.832Z,11.60
2022-10-06T03:46:32.832Z,11.50
2022-10-06T03:49:00.600Z,11.50
2022-10-06T03:51:41.690Z,11.60
2022-10-06T03:54:10.840Z,11.40
2022-10-06T03:56:40.812Z,11.50
2022-10-06T03:59:13.825Z,11.50
2022-10-06T04:01:43.810Z,11.40
2022-10-06T04:04:11.578Z,11.30
2022-10-06T04:06:40.576Z,11.20
2022-10-06T04:09:14.676Z,11.20
2022-10-06T04:11:44.001Z,11.30
2022-10-06T04:14:13.139Z,11.30
2022-10-06T04:16:43.122Z,11.30
2022-10-06T04:19:12.452Z,11.10
2022-10-06T04:21:41.313Z,11.20
2022-10-06T04:24:10.627Z,11.20
2022-10-06T04:26:45.497Z,11.20
2022-10-06T04:29:12.904Z,11.20
2022-10-06T04:31:41.153Z,11.20
2022-10-06T04:34:10.331Z,11.20
2022-10-06T04:36:40.862Z,11.20
2022-10-06T04:39:10.346Z,11.10
2022-10-06T04:41:37.760Z,11.10
2022-10-06T04:44:05.572Z,11.20
2022-10-06T04:46:48.933Z,11.20
2022-10-06T04:49:19.861Z,11.20
2022-10-06T04:51:49.445Z,11.10
2022-10-06T04:54:16.729Z,11.00
2022-10-06T04:56:43.590Z,10.90
2022-10-06T04:59:10.622Z,10.90
2022-10-06T05:01:37.750Z,10.90
2022-10-06T05:04:06.146Z,10.90
2022-10-06T05:06:39.066Z,10.90
2022-10-06T05:09:14.723Z,10.90
2022-10-06T05:11:41.870Z,10.90
2022-10-06T05:14:08.687Z,10.80
2022-10-06T05:16:38.014Z,10.70
2022-10-06T05:19:05.145Z,10.80
2022-10-06T05:21:32.884Z,10.80
2022-10-06T05:24:00.404Z,10.90
2022-10-06T05:26:32.293Z,10.80
2022-10-06T05:28:59.106Z,10.80
2022-10-06T05:31:28.719Z,10.70
2022-10-06T05:33:56.719Z,10.70
2022-10-06T05:36:26.289Z,10.70
2022-10-06T05:38:53.477Z,10.60
2022-10-06T05:41:26.450Z,10.60
2022-10-06T05:43:56.477Z,10.60
2022-10-06T05:46:28.227Z,10.60
2022-10-06T05:49:06.092Z,10.60
2022-10-06T05:51:34.527Z,10.50
2022-10-06T05:54:02.213Z,10.50
2022-10-06T05:56:31.746Z,10.50
2022-10-06T05:58:59.360Z,10.40
2022-10-06T06:01:31.679Z,10.40
2022-10-06T06:04:07.134Z,10.30
2022-10-06T06:06:45.530Z,10.30
2022-10-06T06:09:21.102Z,10.30
2022-10-06T06:11:50.143Z,10.30
2022-10-06T06:14:19.115Z,10.30
2022-10-06T06:16:46.593Z,10.30
2022-10-06T06:19:14.319Z,10.30
2022-10-06T06:21:41.528Z,10.30
2022-10-06T06:24:08.629Z,10.40
2022-10-06T06:26:37.400Z,10.40
2022-10-06T06:29:06.284Z,10.40
2022-10-06T06:31:36.610Z,10.50
2022-10-06T06:34:06.502Z,10.50
2022-10-06T06:36:40.956Z,10.60
2022-10-06T06:39:10.475Z,10.60
2022-10-06T06:41:39.428Z,10.70
2022-10-06T06:44:08.346Z,10.70
2022-10-06T06:49:08.190Z,10.80
2022-10-06T06:51:37.775Z,10.80
2022-10-06T06:54:04.994Z,10.90
2022-10-06T06:56:35.157Z,10.90
2022-10-06T06:59:10.952Z,11.00
2022-10-06T07:01:44.573Z,11.00
2022-10-06T07:04:13.657Z,11.10
2022-10-06T07:06:41.679Z,11.30
2022-10-06T07:09:10.246Z,11.30
2022-10-06T07:11:39.459Z,11.30
2022-10-06T07:14:10.016Z,11.40
2022-10-06T07:16:55.642Z,11.40
2022-10-06T07:19:41.883Z,11.50
2022-10-06T07:22:27.521Z,11.60
2022-10-06T07:25:08.490Z,11.70
2022-10-06T07:27:37.224Z,11.80
2022-10-06T07:30:07.658Z,11.90
2022-10-06T07:32:34.469Z,12.00
2022-10-06T07:35:01.353Z,12.00
2022-10-06T07:37:31.438Z,12.10
2022-10-06T07:39:58.317Z,12.10
2022-10-06T07:42:25.151Z,12.30
2022-10-06T07:45:10.613Z,12.30
2022-10-06T07:47:40.108Z,12.30
2022-10-06T07:50:07.621Z,12.30
2022-10-06T07:52:37.086Z,12.40
2022-10-06T07:55:04.023Z,12.40
2022-10-06T07:57:35.427Z,12.50
2022-10-06T08:00:07.300Z,12.60
2022-10-06T08:02:35.907Z,12.70
2022-10-06T08:05:04.631Z,12.70
2022-10-06T08:07:31.931Z,12.80
2022-10-06T08:09:58.782Z,12.90
2022-10-06T08:12:37.671Z,13.00
2022-10-06T08:15:07.613Z,13.10
2022-10-06T08:17:36.812Z,13.10
2022-10-06T08:20:10.471Z,13.20
2022-10-06T08:22:39.971Z,13.30
2022-10-06T08:25:11.055Z,13.40
2022-10-06T08:27:38.241Z,13.50
2022-10-06T08:30:06.442Z,13.50
2022-10-06T08:32:34.127Z,13.50
2022-10-06T08:35:00.970Z,13.60
2022-10-06T08:37:27.862Z,13.60
2022-10-06T08:39:55.267Z,13.70
2022-10-06T08:42:28.345Z,13.70
2022-10-06T08:45:05.100Z,13.80
2022-10-06T08:47:35.475Z,13.90
2022-10-06T08:50:09.836Z,13.90
2022-10-06T08:52:48.755Z,14.00
2022-10-06T08:55:53.737Z,14.00
2022-10-06T08:58:37.303Z,14.00
2022-10-06T09:01:44.993Z,14.10
2022-10-06T09:04:28.996Z,14.30
2022-10-06T09:07:13.063Z,14.30
2022-10-06T09:09:39.785Z,14.30
2022-10-06T09:12:29.753Z,14.40
2022-10-06T09:15:19.710Z,14.50
2022-10-06T09:17:54.345Z,14.60
2022-10-06T09:20:34.149Z,14.60
2022-10-06T09:23:04.445Z,14.70
2022-10-06T09:25:31.528Z,14.70
2022-10-06T09:28:01.167Z,14.80
2022-10-06T09:30:28.455Z,14.70
2022-10-06T09:33:01.338Z,14.80
2022-10-06T09:35:30.520Z,14.80
2022-10-06T09:38:00.686Z,14.80
2022-10-06T09:40:51.099Z,14.80
2022-10-06T09:43:29.603Z,15.00
2022-10-06T09:46:31.243Z,15.10
2022-10-06T09:49:14.529Z,15.20
2022-10-06T09:51:41.349Z,15.20
2022-10-06T09:54:14.899Z,15.30
2022-10-06T09:56:45.116Z,15.40
2022-10-06T09:59:39.940Z,15.50
2022-10-06T10:02:41.266Z,15.70
2022-10-06T10:05:20.035Z,16.00
2022-10-06T10:08:00.493Z,16.00
2022-10-06T10:10:29.688Z,15.90
2022-10-06T10:12:58.975Z,15.80
2022-10-06T10:15:33.024Z,15.70
2022-10-06T10:18:13.961Z,16.00
2022-10-06T10:20:56.378Z,16.40
2022-10-06T10:23:31.710Z,16.60
2022-10-06T10:26:14.247Z,16.50
2022-10-06T10:28:51.664Z,16.90
2022-10-06T10:31:36.313Z,17.20
2022-10-06T10:34:25.229Z,17.20
2022-10-06T10:37:03.521Z,17.40
2022-10-06T10:39:37.573Z,17.20
2022-10-06T10:42:19.027Z,17.40
2022-10-06T10:44:57.254Z,18.00
2022-10-06T10:47:32.847Z,18.70
2022-10-06T10:50:21.772Z,18.10
2022-10-06T10:52:51.911Z,17.30
2022-10-06T10:55:27.546Z,16.40
2022-10-06T10:58:04.419Z,16.00
2022-10-06T11:00:36.179Z,16.20
2022-10-06T11:03:03.270Z,16.80
2022-10-06T11:06:04.501Z,17.60
2022-10-06T11:08:49.723Z,18.20
2022-10-06T11:11:37.903Z,18.80
2022-10-06T11:14:16.860Z,19.00
2022-10-06T11:17:05.470Z,19.00
2022-10-06T11:19:35.104Z,17.80
2022-10-06T11:22:31.542Z,17.50
2022-10-06T11:25:19.510Z,18.50
2022-10-06T11:27:52.917Z,19.40
2022-10-06T11:30:26.271Z,19.80
2022-10-06T11:33:34.206Z,19.30
2022-10-06T11:36:03.541Z,19.00
2022-10-06T11:38:41.364Z,17.90
2022-10-06T11:41:14.003Z,18.10
2022-10-06T11:44:22.506Z,18.20
2022-10-06T11:47:07.284Z,18.10
2022-10-06T11:49:52.338Z,18.20
2022-10-06T11:52:19.248Z,18.30
2022-10-06T11:54:49.664Z,18.70
2022-10-06T11:57:56.688Z,19.30
2022-10-06T12:00:26.525Z,19.50
2022-10-06T12:02:53.456Z,19.90
2022-10-06T12:05:54.689Z,20.20
2022-10-06T12:08:13.151Z,20.50
2022-10-06T12:10:49.605Z,20.80
2022-10-06T12:19:38.722Z,20.10
2022-10-06T12:22:24.609Z,20.00
2022-10-06T12:25:06.374Z,20.10
2022-10-06T12:27:33.317Z,20.60
2022-10-06T12:30:31.344Z,21.20
2022-10-06T12:32:59.212Z,21.50
2022-10-06T12:35:35.039Z,20.90
2022-10-06T12:38:26.526Z,21.10
2022-10-06T12:40:57.743Z,21.10
2022-10-06T12:43:32.600Z,21.40
2022-10-06T12:46:21.994Z,21.20
2022-10-06T12:49:07.513Z,21.10
2022-10-06T12:51:40.886Z,21.10
2022-10-06T12:54:14.101Z,21.30
2022-10-06T12:56:56.748Z,21.40
2022-10-06T12:59:26.898Z,21.20
2022-10-06T13:02:00.201Z,20.90
2022-10-06T13:04:34.850Z,21.20
2022-10-06T13:07:23.805Z,21.90
2022-10-06T13:09:54.558Z,22.60
2022-10-06T13:12:25.803Z,22.40
2022-10-06T13:15:15.252Z,22.10
2022-10-06T13:18:06.605Z,22.20
2022-10-06T13:20:38.241Z,21.90
2022-10-06T13:23:28.140Z,22.30
2022-10-06T13:26:07.060Z,22.30
2022-10-06T13:28:47.572Z,22.30
2022-10-06T13:31:17.564Z,22.20
2022-10-06T13:33:46.359Z,22.40
2022-10-06T13:36:13.727Z,22.10
2022-10-06T13:38:42.101Z,21.00
2022-10-06T13:41:22.781Z,20.80
2022-10-06T13:44:03.221Z,20.70
2022-10-06T13:46:32.305Z,20.80
2022-10-06T13:49:24.831Z,21.70
2022-10-06T13:51:54.356Z,21.80
2022-10-06T13:54:50.463Z,22.20
2022-10-06T13:57:48.703Z,21.50
2022-10-06T14:00:23.223Z,21.10
2022-10-06T14:02:54.824Z,20.80
2022-10-06T14:05:27.001Z,21.80
2022-10-06T14:08:11.348Z,22.00
2022-10-06T14:10:48.494Z,22.30
2022-10-06T14:13:44.622Z,22.00
2022-10-06T14:16:23.677Z,22.00
2022-10-06T14:21:36.962Z,23.00
2022-10-06T14:24:16.225Z,22.60
2022-10-06T14:26:45.238Z,22.50
2022-10-06T14:29:15.404Z,22.80
2022-10-06T14:31:43.937Z,23.20
2022-10-06T14:34:16.467Z,23.20
2022-10-06T14:36:45.838Z,23.20
2022-10-06T14:39:15.490Z,23.10
2022-10-06T14:41:42.660Z,22.90
2022-10-06T14:44:11.331Z,21.40
2022-10-06T14:46:40.249Z,21.00
2022-10-06T14:49:07.833Z,20.80
2022-10-06T14:51:37.057Z,21.50
2022-10-06T14:54:06.266Z,22.20
2022-10-06T14:56:35.130Z,21.50
2022-10-06T14:59:05.814Z,21.50
2022-10-06T15:01:34.824Z,22.10
2022-10-06T15:04:09.624Z,21.70
2022-10-06T15:06:55.070Z,22.00
2022-10-06T15:09:22.047Z,21.80
2022-10-06T15:11:48.875Z,20.90
2022-10-06T15:14:15.712Z,19.90
2022-10-06T15:16:44.468Z,19.30
2022-10-06T15:19:12.562Z,19.70
2022-10-06T15:21:41.579Z,19.60
2022-10-06T15:24:12.487Z,19.80
2022-10-06T15:26:58.445Z,20.60
2022-10-06T15:29:25.266Z,21.30
2022-10-06T15:31:55.408Z,21.50
2022-10-06T15:34:24.570Z,21.00
2022-10-06T15:36:52.493Z,20.60
2022-10-06T15:39:21.635Z,20.70
2022-10-06T15:41:48.663Z,20.70
2022-10-06T15:44:16.588Z,19.80
2022-10-06T15:46:46.604Z,19.80
2022-10-06T15:49:15.519Z,19.40
2022-10-06T15:51:50.483Z,19.80
2022-10-06T15:54:21.877Z,20.20
2022-10-06T15:56:50.631Z,20.10
2022-10-06T15:59:17.842Z,19.50
2022-10-06T16:01:48.830Z,18.40
2022-10-06T16:04:41.784Z,17.70
2022-10-06T16:07:11.734Z,17.40
2022-10-06T16:09:49.879Z,17.10
2022-10-06T16:12:19.356Z,16.80
2022-10-06T16:14:46.512Z,16.60
2022-10-06T16:17:16.496Z,16.40
2022-10-06T16:19:43.398Z,16.20
2022-10-06T16:22:16.107Z,16.10
2022-10-06T16:24:45.557Z,15.80
2022-10-06T16:27:13.747Z,15.70
2022-10-06T16:29:41.229Z,15.60
2022-10-06T16:32:08.313Z,15.50
2022-10-06T16:34:35.105Z,15.50
2022-10-06T16:37:01.974Z,15.30
2022-10-06T16:39:29.031Z,15.20
2022-10-06T16:41:56.171Z,15.10
2022-10-06T16:44:23.209Z,15.00
2022-10-06T16:46:50.139Z,15.00
2022-10-06T16:49:17.004Z,15.00
2022-10-06T16:51:48.254Z,15.10
2022-10-06T16:54:17.131Z,14.90
2022-10-06T16:56:48.916Z,14.80
2022-10-06T16:59:24.127Z,14.70
2022-10-06T17:01:51.242Z,14.50
2022-10-06T17:04:20.297Z,14.50
2022-10-06T17:06:55.405Z,14.40
2022-10-06T17:09:24.455Z,14.50
2022-10-06T17:12:02.847Z,14.50
2022-10-06T17:14:31.543Z,14.40
2022-10-06T17:16:59.401Z,14.40
2022-10-06T17:19:28.676Z,14.30
2022-10-06T17:21:59.021Z,14.30
2022-10-06T17:24:28.437Z,14.30
2022-10-06T17:26:56.790Z,14.30
2022-10-06T17:29:24.093Z,14.30
2022-10-06T17:31:59.117Z,14.30
2022-10-06T17:34:30.711Z,14.20
2022-10-06T17:37:00.272Z,14.30
2022-10-06T17:39:27.169Z,14.20
2022-10-06T17:41:54.259Z,14.30
2022-10-06T17:44:26.017Z,14.30
2022-10-06T17:46:55.582Z,14.20
2022-10-06T17:49:26.646Z,14.30
2022-10-06T17:51:55.338Z,14.30
2022-10-06T17:54:24.231Z,14.10
2022-10-06T17:56:53.440Z,14.00
2022-10-06T17:59:28.606Z,13.90
2022-10-06T18:01:57.113Z,13.80
2022-10-06T18:04:24.593Z,13.80
2022-10-06T18:06:54.005Z,13.80
2022-10-06T18:09:21.971Z,13.70
2022-10-06T18:11:54.642Z,13.60
2022-10-06T18:14:23.776Z,13.40
2022-10-06T18:17:01.136Z,13.50
2022-10-06T18:19:30.811Z,13.50
2022-10-06T18:22:01.884Z,13.50
2022-10-06T18:24:30.838Z,13.40
2022-10-06T18:27:00.525Z,13.50
2022-10-06T18:29:36.312Z,13.30
2022-10-06T18:32:51.081Z,13.30
2022-10-06T18:37:38.780Z,13.10
2022-10-06T18:40:08.747Z,13.00
2022-10-06T18:42:35.974Z,13.10
2022-10-06T18:45:21.685Z,12.90
2022-10-06T18:48:07.258Z,12.90
2022-10-06T18:50:35.330Z,12.80
2022-10-06T18:53:04.150Z,12.90
2022-10-06T18:55:31.665Z,12.80
2022-10-06T18:57:58.912Z,12.80
2022-10-06T19:00:26.099Z,12.80
2022-10-06T19:02:55.468Z,12.70
2022-10-06T19:05:22.670Z,12.70
2022-10-06T19:07:51.756Z,12.60
2022-10-06T19:10:19.416Z,12.60
2022-10-06T19:12:46.756Z,12.70
2022-10-06T19:15:17.830Z,12.60
2022-10-06T19:17:47.082Z,12.60
2022-10-06T19:20:14.039Z,12.70
2022-10-06T19:22:40.966Z,12.60
2022-10-06T19:25:08.101Z,12.60
2022-10-06T19:27:36.120Z,12.50
2022-10-06T19:30:04.014Z,12.50
2022-10-06T19:32:35.698Z,12.60
2022-10-06T19:35:06.356Z,12.70
2022-10-06T19:37:36.277Z,12.70
2022-10-06T19:40:03.429Z,12.70
2022-10-06T19:42:48.680Z,12.60
2022-10-06T19:45:16.287Z,12.60
2022-10-06T19:47:44.862Z,12.60
2022-10-06T19:50:12.997Z,12.70
2022-10-06T19:52:41.624Z,12.70
2022-10-06T19:55:08.909Z,12.90
2022-10-06T19:57:35.971Z,13.00
2022-10-06T20:00:03.660Z,13.00
2022-10-06T20:02:30.478Z,12.90
2022-10-06T20:05:00.672Z,12.70
2022-10-06T20:07:28.054Z,12.70
2022-10-06T20:09:55.552Z,12.40
2022-10-06T20:12:25.164Z,12.30
2022-10-06T20:14:53.690Z,12.10
2022-10-06T20:17:21.066Z,12.00
2022-10-06T20:19:47.939Z,12.10
2022-10-06T20:22:14.926Z,12.20
2022-10-06T20:24:44.360Z,12.30
2022-10-06T20:27:11.278Z,12.50
2022-10-06T20:29:38.084Z,12.70
2022-10-06T20:32:05.301Z,12.80
2022-10-06T20:34:32.726Z,13.00
2022-10-06T20:37:02.279Z,13.20
2022-10-06T20:39:49.116Z,13.30
2022-10-06T20:42:16.003Z,13.30
2022-10-06T20:44:44.010Z,13.30
2022-10-06T20:47:12.001Z,13.30
2022-10-06T20:49:39.118Z,13.40
2022-10-06T20:52:06.228Z,13.40
2022-10-06T20:54:35.901Z,13.40
2022-10-06T20:57:05.473Z,13.40
2022-10-06T20:59:35.501Z,13.50
2022-10-06T21:02:03.365Z,13.50
2022-10-06T21:04:30.612Z,13.60
2022-10-06T21:06:57.840Z,13.60
2022-10-06T21:09:25.274Z,13.50
2022-10-06T21:11:52.269Z,13.50
2022-10-06T21:14:19.898Z,13.50
2022-10-06T21:16:48.310Z,13.50
2022-10-06T21:19:17.222Z,13.50
2022-10-06T21:21:49.756Z,13.50
2022-10-06T21:24:16.757Z,13.50
2022-10-06T21:26:43.696Z,13.60
2022-10-06T21:29:15.802Z,13.50
2022-10-06T21:31:43.870Z,13.30
2022-10-06T21:34:11.053Z,13.20
2022-10-06T21:36:38.632Z,13.10
2022-10-06T21:39:06.248Z,12.90
2022-10-06T21:41:38.900Z,12.80
2022-10-06T21:44:11.717Z,12.80
2022-10-06T21:46:47.282Z,12.70
2022-10-06T21:49:17.478Z,12.60
2022-10-06T21:51:46.379Z,12.70
2022-10-06T21:54:13.533Z,12.60
2022-10-06T21:56:41.058Z,12.50
2022-10-06T21:59:08.658Z,12.50
2022-10-06T22:01:37.822Z,12.60
2022-10-06T22:04:05.631Z,12.60
2022-10-06T22:06:35.066Z,12.60
2022-10-06T22:09:02.309Z,12.60
2022-10-06T22:11:32.167Z,12.70
2022-10-06T22:14:01.863Z,12.80
2022-10-06T22:16:31.510Z,12.80
2022-10-06T22:18:59.165Z,12.70
2022-10-06T22:21:28.599Z,12.70
2022-10-06T22:24:00.702Z,12.80
2022-10-06T22:26:29.626Z,13.50
2022-10-06T22:28:58.269Z,12.70
2022-10-06T22:31:26.698Z,12.60
2022-10-06T22:33:56.493Z,12.40
2022-10-06T22:36:24.621Z,12.30
2022-10-06T22:38:51.619Z,12.30
2022-10-06T22:41:18.632Z,12.10
2022-10-06T22:43:45.489Z,12.10
2022-10-06T22:46:13.728Z,12.00
2022-10-06T22:48:41.768Z,12.00
2022-10-06T22:51:08.728Z,12.00
2022-10-06T22:53:35.957Z,12.00
2022-10-06T22:56:03.887Z,11.90
2022-10-06T22:58:31.150Z,12.00
2022-10-06T23:01:18.329Z,12.00
2022-10-06T23:03:46.071Z,12.00
2022-10-06T23:06:15.211Z,12.00
2022-10-06T23:08:42.162Z,12.00
2022-10-06T23:11:11.427Z,11.90
2022-10-06T23:13:38.447Z,11.70
2022-10-06T23:16:08.168Z,11.50
2022-10-06T23:18:36.909Z,11.50
2022-10-06T23:21:19.213Z,11.50
2022-10-06T23:23:47.495Z,11.60
2022-10-06T23:26:16.016Z,11.60
2022-10-06T23:28:43.079Z,11.40
2022-10-06T23:31:10.978Z,11.30
2022-10-06T23:33:38.186Z,11.20
2022-10-06T23:36:07.403Z,11.20
2022-10-06T23:38:35.126Z,11.10
2022-10-06T23:41:02.241Z,11.10
2022-10-06T23:43:29.437Z,11.10
2022-10-06T23:45:56.949Z,11.00
2022-10-06T23:48:23.820Z,11.10
2022-10-06T23:51:23.268Z,11.20
2022-10-06T23:53:50.105Z,11.20
2022-10-06T23:56:18.981Z,11.20
2022-10-06T23:58:45.806Z,11.20
